ADDS METAR Data INFO
IDs: Format: Raw Decoded Include TAF

Data at: 1344 UTC 21 Nov 2017

KJAC 211256Z AUTO 00000KT 9SM -SN SCT035 SCT044 OVC050 02/00 A3020 RMK AO2 SLP250 P0001 T00170000
KJAC 211156Z AUTO 03004KT 10SM -SN BKN042 OVC050 02/01 A3018 RMK AO2 SLP241 P0000 60017 70017 T00220006 10039 20000 53026
KJAC 211056Z AUTO 23013KT 10SM -SN FEW047 OVC060 03/01 A3014 RMK AO2 SLP225 P0000 T00330006
KJAC 210956Z AUTO 23011KT 10SM -SN FEW019 BKN034 OVC048 03/02 A3012 RMK AO2 SLP214 P0005 T00280022
KJAC 210947Z AUTO 23010KT 9SM -SN SCT025 BKN034 OVC055 03/02 A3012 RMK AO2 P0005 TSNO
KJAC 210906Z AUTO 23007KT 10SM -SN FEW011 BKN028 OVC032 03/02 A3009 RMK AO2 P0001
KJAC 210856Z AUTO 25008KT 10SM -SN FEW011 SCT021 OVC031 03/02 A3009 RMK AO2 SLP203 P0010 60012 T00280022 51014
KJAC 210756Z AUTO 22017G22KT 7SM -SN BKN032 OVC040 01/01 A3007 RMK AO2 SLP199 P0002 T00110006
KJAC 210705Z AUTO 23005KT 6SM -SN BR FEW027 OVC035 01/00 A3007 RMK AO2 P0000
KJAC 210656Z AUTO 24006KT 7SM -SN FEW009 BKN027 OVC033 01/00 A3006 RMK AO2 SLP196 P0000 T00060000 400391094
KJAC 210617Z AUTO 25010KT 8SM -SN SCT005 BKN018 OVC026 00/00 A3004 RMK AO2 P0000
KJAC 210610Z AUTO 24010KT 7SM -SN SCT003 BKN008 OVC018 00/00 A3004 RMK AO2 CIG 006V010 P0000
KJAC 210556Z AUTO 25007KT 5SM -SN BR BKN003 BKN010 OVC020 00/00 A3004 RMK AO2 SLP191 P0000 60000 T00000000 10011 20000 51005
KJAC 210552Z AUTO 26007KT 4SM -SN BR BKN003 BKN010 OVC020 00/00 A3004 RMK AO2 P0000
KJAC 210456Z AUTO 25007KT 7SM -SN FEW007 OVC024 00/M01 A3004 RMK AO2 SLP189 P0000 T00001006
KJAC 210448Z AUTO 24007KT 6SM -SN BR SCT007 OVC020 00/M01 A3003 RMK AO2 P0000
KJAC 210434Z AUTO 23005KT 6SM -SN BR BKN009 OVC018 00/M01 A3003 RMK AO2 CIG 007V011 P0000
KJAC 210425Z AUTO 23008KT 3SM -SN BR SCT007 OVC018 00/M01 A3003 RMK AO2 P0000
KJAC 210406Z AUTO 24006KT 3SM -SN BR SCT012 OVC020 00/M01 A3003 RMK AO2 P0000
KJAC 210356Z AUTO 23006KT 2 1/2SM -SN BR FEW004 BKN015 OVC020 00/M01 A3003 RMK AO2 VIS 1 3/4V4 SLP191 P0000 T00001006
KJAC 210344Z 24006KT 2SM -SN BR SCT004 BKN013 OVC022 00/M01 A3003 RMK AO2 P0000
KJAC 210311Z 00000KT 2 1/2SM -SN BR BKN004 OVC017 00/M01 A3003 RMK AO2 P0000
KJAC 210303Z 00000KT 3SM -SN BR BKN004 OVC017 01/M01 A3003 RMK AO2 P0000
KJAC 210256Z 00000KT 4SM -SN BR SCT004 BKN017 OVC034 01/M01 A3002 RMK AO2 SLP187 P0000 60000 T00061006 51005
KJAC 210247Z 33004KT 4SM -SN BR BKN017 BKN028 OVC034 00/M01 A3002 RMK AO2 P0000
KJAC 210156Z 00000KT 9SM -SN FEW026 OVC042 01/M01 A3002 RMK AO2 SLP188 P0000 T00061006
KJAC 210149Z 25003KT 10SM -SN SCT026 OVC042 01/M01 A3002 RMK AO2 P0000
KJAC 210129Z 22008KT 5SM -SN BR BKN026 OVC033 01/M01 A3001 RMK AO2 P0000
KJAC 210056Z 24005KT 5SM -SN BR SCT032 OVC042 01/M01 A3000 RMK AO2 SLP184 P0000 T00061006
KJAC 202356Z 21011KT 5SM -SN BR OVC045 01/M01 A3000 RMK AO2 SLP188 P0000 60000 T00061011 10039 20006 50003
KJAC 202318Z 20012KT 5SM -SN BR FEW024 BKN039 OVC055 01/M01 A3001 RMK AO2 P0000
KJAC 202304Z 20013KT 2SM -SN BR FEW021 BKN029 OVC039 01/M02 A3000 RMK AO2 P0000
KJAC 202256Z 21013KT 1 3/4SM -SN BR OVC039 01/M02 A3000 RMK AO2 RAE31UPB31E34SNB34 SLP193 P0000 T00061017
KJAC 202246Z 22014G19KT 2 1/2SM -SN OVC039 01/M02 A3000 RMK AO2 VIS 1 1/2V3 RAE31UPB31E34SNB34 P0000
KJAC 202156Z 22018G22KT 10SM -RA SCT034 OVC043 02/M04 A2999 RMK AO2 RAB06E25B55 SLP190 P0000 T00221039
KJAC 202056Z 22014G19KT 10SM OVC049 03/M05 A2999 RMK AO2 SLP197 VCSH 60000 T00281050 58009
KJAC 201956Z 21013KT 10SM OVC040 03/M05 A3001 RMK AO2 PK WND 20026/1902 SLP205 T00331050
KJAC 201856Z 20017G28KT 10SM OVC050 04/M05 A3002 RMK AO2 PK WND 20028/1853 RAE15 SLP204 VCSH P0000 T00391050
KJAC 201756Z 19017G22KT 9SM -RA OVC050 03/M04 A3002 RMK AO2 RAB46 SLP208 VCNSH P0000 60000 T00281044 10033 21022 $
KJAC 201656Z 19017KT 10SM OVC042 03/M04 A3000 RMK AO2 PK WND 19029/1625 RAB01E08 SLP201 VCSH P0000 T00331039 $
KJAC 201556Z 21013KT 10SM OVC044 02/M06 A3000 RMK AO2 SLP204 T00221061 $
KJAC 201456Z 19012G17KT 10SM OVC050 02/M07 RMK AO2 SLPNO T00171067 $
KJAC 201356Z 20014KT 10SM BKN060 BKN095 00/M06 A2999 RMK AO2 SLP207 T00001061 $
KJAC 201256Z AUTO 21015G24KT 10SM SCT049 OVC060 01/M06 RMK AO2 PK WND 19026/1244 SLPNO T00061056 $
KJAC 201156Z AUTO 24009KT 10SM OVC080 M02/M07 RMK AO2 SLPNO T10221067 11017 21094 $
KJAC 201056Z AUTO 24009KT 10SM FEW075 OVC090 M03/M07 RMK AO2 SLPNO T10281072 $
KJAC 200956Z AUTO 22006KT 10SM SCT090 BKN120 M06/M08 RMK AO2 SLPNO T10561083 $
KJAC 200856Z AUTO 06003KT 10SM FEW120 M08/M10 RMK AO2 SLPNO T10831100 $
KJAC 200756Z AUTO 01007KT 10SM CLR M09/M11 RMK AO2 SLPNO T10891106 $
KJAC 200656Z AUTO 02006KT 10SM CLR M08/M11 RMK AO2 SLPNO T10831106 400171150 $
KJAC 200556Z AUTO 03006KT 10SM CLR M08/M11 RMK AO2 SLPNO T10831106 11067 21100 $
KJAC 200456Z AUTO 02008KT 10SM CLR M09/M11 RMK AO2 SLPNO T10891106 $
KJAC 200356Z AUTO 02006KT 10SM CLR M09/M11 RMK AO2 SLPNO T10941111 $
KJAC 200256Z 04003KT 10SM CLR M09/M11 A3005 RMK AO2 SLP260 T10941111 57014 $
KJAC 200156Z 02004KT 10SM CLR M09/M11 A3007 RMK AO2 SLP267 T10941111 $